sensor_id;sensor_type;location;lat;lon;timestamp;P1;durP1;ratioP1;P2;durP2;ratioP2
6017;SDS011;3037;51.068;13.780;2023-04-19T00:00:50;18.80;;;13.13;;
6017;SDS011;3037;51.068;13.780;2023-04-19T00:03:16;18.70;;;12.23;;
6017;SDS011;3037;51.068;13.780;2023-04-19T00:05:41;14.77;;;11.80;;
6017;SDS011;3037;51.068;13.780;2023-04-19T00:08:07;17.23;;;12.83;;
6017;SDS011;3037;51.068;13.780;2023-04-19T00:10:33;15.33;;;12.60;;
6017;SDS011;3037;51.068;13.780;2023-04-19T00:13:00;17.93;;;12.00;;
6017;SDS011;3037;51.068;13.780;2023-04-19T00:15:25;12.30;;;11.10;;
6017;SDS011;3037;51.068;13.780;2023-04-19T00:17:51;13.47;;;11.20;;
6017;SDS011;3037;51.068;13.780;2023-04-19T00:20:16;13.67;;;10.53;;
6017;SDS011;3037;51.068;13.780;2023-04-19T00:22:42;13.80;;;10.00;;
6017;SDS011;3037;51.068;13.780;2023-04-19T00:25:08;13.63;;;9.53;;
6017;SDS011;3037;51.068;13.780;2023-04-19T00:27:33;9.43;;;8.53;;
6017;SDS011;3037;51.068;13.780;2023-04-19T00:29:59;11.03;;;9.87;;
6017;SDS011;3037;51.068;13.780;2023-04-19T00:32:25;15.43;;;9.87;;
6017;SDS011;3037;51.068;13.780;2023-04-19T00:34:51;14.77;;;9.27;;
6017;SDS011;3037;51.068;13.780;2023-04-19T00:37:16;10.30;;;9.30;;
6017;SDS011;3037;51.068;13.780;2023-04-19T00:39:42;13.87;;;9.07;;
6017;SDS011;3037;51.068;13.780;2023-04-19T00:42:07;9.77;;;8.80;;
6017;SDS011;3037;51.068;13.780;2023-04-19T00:44:33;8.80;;;7.90;;
6017;SDS011;3037;51.068;13.780;2023-04-19T00:46:58;9.80;;;7.77;;
6017;SDS011;3037;51.068;13.780;2023-04-19T00:49:25;15.70;;;9.17;;
6017;SDS011;3037;51.068;13.780;2023-04-19T00:51:53;11.50;;;8.23;;
6017;SDS011;3037;51.068;13.780;2023-04-19T00:54:19;13.10;;;9.00;;
6017;SDS011;3037;51.068;13.780;2023-04-19T00:56:45;15.20;;;7.77;;
6017;SDS011;3037;51.068;13.780;2023-04-19T00:59:11;12.40;;;7.53;;
6017;SDS011;3037;51.068;13.780;2023-04-19T01:01:39;12.40;;;7.07;;
6017;SDS011;3037;51.068;13.780;2023-04-19T01:04:05;15.40;;;7.00;;
6017;SDS011;3037;51.068;13.780;2023-04-19T01:06:32;10.37;;;8.20;;
6017;SDS011;3037;51.068;13.780;2023-04-19T01:08:58;9.17;;;7.10;;
6017;SDS011;3037;51.068;13.780;2023-04-19T01:11:24;7.93;;;7.23;;
6017;SDS011;3037;51.068;13.780;2023-04-19T01:13:50;14.80;;;7.80;;
6017;SDS011;3037;51.068;13.780;2023-04-19T01:16:16;10.93;;;8.23;;
6017;SDS011;3037;51.068;13.780;2023-04-19T01:18:42;11.53;;;7.80;;
6017;SDS011;3037;51.068;13.780;2023-04-19T01:21:08;11.33;;;7.53;;
6017;SDS011;3037;51.068;13.780;2023-04-19T01:23:34;10.57;;;8.33;;
6017;SDS011;3037;51.068;13.780;2023-04-19T01:26:00;7.83;;;6.70;;
6017;SDS011;3037;51.068;13.780;2023-04-19T01:28:26;18.47;;;8.13;;
6017;SDS011;3037;51.068;13.780;2023-04-19T01:30:52;8.10;;;7.30;;
6017;SDS011;3037;51.068;13.780;2023-04-19T01:33:20;8.87;;;7.97;;
6017;SDS011;3037;51.068;13.780;2023-04-19T01:35:46;10.10;;;7.50;;
6017;SDS011;3037;51.068;13.780;2023-04-19T01:38:12;9.90;;;7.90;;
6017;SDS011;3037;51.068;13.780;2023-04-19T01:40:38;35.40;;;20.37;;
6017;SDS011;3037;51.068;13.780;2023-04-19T01:43:05;39.23;;;22.77;;
6017;SDS011;3037;51.068;13.780;2023-04-19T01:45:31;40.17;;;21.00;;
6017;SDS011;3037;51.068;13.780;2023-04-19T01:47:57;24.77;;;16.40;;
6017;SDS011;3037;51.068;13.780;2023-04-19T01:50:25;22.33;;;14.03;;
6017;SDS011;3037;51.068;13.780;2023-04-19T01:52:51;45.50;;;20.20;;
6017;SDS011;3037;51.068;13.780;2023-04-19T01:55:16;16.40;;;10.03;;
6017;SDS011;3037;51.068;13.780;2023-04-19T01:57:42;19.97;;;13.03;;
6017;SDS011;3037;51.068;13.780;2023-04-19T02:00:08;23.53;;;15.50;;
6017;SDS011;3037;51.068;13.780;2023-04-19T02:02:35;13.53;;;8.37;;
6017;SDS011;3037;51.068;13.780;2023-04-19T02:05:02;11.40;;;8.60;;
6017;SDS011;3037;51.068;13.780;2023-04-19T02:07:27;8.70;;;7.13;;
6017;SDS011;3037;51.068;13.780;2023-04-19T02:09:53;8.53;;;6.97;;
6017;SDS011;3037;51.068;13.780;2023-04-19T02:12:19;15.33;;;7.93;;
6017;SDS011;3037;51.068;13.780;2023-04-19T02:14:45;14.70;;;8.70;;
6017;SDS011;3037;51.068;13.780;2023-04-19T02:17:10;15.87;;;8.83;;
6017;SDS011;3037;51.068;13.780;2023-04-19T02:19:36;11.70;;;8.27;;
6017;SDS011;3037;51.068;13.780;2023-04-19T02:22:01;9.50;;;7.00;;
6017;SDS011;3037;51.068;13.780;2023-04-19T02:24:27;14.23;;;8.23;;
6017;SDS011;3037;51.068;13.780;2023-04-19T02:26:52;12.40;;;8.00;;
6017;SDS011;3037;51.068;13.780;2023-04-19T02:29:18;8.03;;;7.20;;
6017;SDS011;3037;51.068;13.780;2023-04-19T02:31:44;9.50;;;7.80;;
6017;SDS011;3037;51.068;13.780;2023-04-19T02:34:10;7.53;;;6.70;;
6017;SDS011;3037;51.068;13.780;2023-04-19T02:36:36;9.87;;;8.20;;
6017;SDS011;3037;51.068;13.780;2023-04-19T02:39:01;11.17;;;9.00;;
6017;SDS011;3037;51.068;13.780;2023-04-19T02:41:27;12.20;;;8.93;;
6017;SDS011;3037;51.068;13.780;2023-04-19T02:43:52;9.30;;;7.80;;
6017;SDS011;3037;51.068;13.780;2023-04-19T02:46:19;8.63;;;7.73;;
6017;SDS011;3037;51.068;13.780;2023-04-19T02:48:44;10.67;;;8.37;;
6017;SDS011;3037;51.068;13.780;2023-04-19T02:51:13;12.10;;;9.47;;
6017;SDS011;3037;51.068;13.780;2023-04-19T02:53:40;13.73;;;7.50;;
6017;SDS011;3037;51.068;13.780;2023-04-19T02:56:06;10.83;;;8.97;;
6017;SDS011;3037;51.068;13.780;2023-04-19T02:58:32;9.60;;;8.60;;
6017;SDS011;3037;51.068;13.780;2023-04-19T03:00:57;11.80;;;9.20;;
6017;SDS011;3037;51.068;13.780;2023-04-19T03:03:23;13.00;;;9.20;;
6017;SDS011;3037;51.068;13.780;2023-04-19T03:05:48;11.93;;;10.03;;
6017;SDS011;3037;51.068;13.780;2023-04-19T03:08:14;11.37;;;8.93;;
6017;SDS011;3037;51.068;13.780;2023-04-19T03:10:39;12.13;;;8.97;;
6017;SDS011;3037;51.068;13.780;2023-04-19T03:13:05;12.77;;;9.33;;
6017;SDS011;3037;51.068;13.780;2023-04-19T03:15:30;15.97;;;11.07;;
6017;SDS011;3037;51.068;13.780;2023-04-19T03:17:56;14.40;;;10.90;;
6017;SDS011;3037;51.068;13.780;2023-04-19T03:20:21;11.47;;;10.07;;
6017;SDS011;3037;51.068;13.780;2023-04-19T03:22:47;13.93;;;10.70;;
6017;SDS011;3037;51.068;13.780;2023-04-19T03:25:13;12.13;;;10.47;;
6017;SDS011;3037;51.068;13.780;2023-04-19T03:27:38;16.27;;;10.20;;
6017;SDS011;3037;51.068;13.780;2023-04-19T03:30:04;14.00;;;9.70;;
6017;SDS011;3037;51.068;13.780;2023-04-19T03:32:30;16.97;;;10.80;;
6017;SDS011;3037;51.068;13.780;2023-04-19T03:34:56;16.07;;;11.70;;
6017;SDS011;3037;51.068;13.780;2023-04-19T03:37:21;22.77;;;12.40;;
6017;SDS011;3037;51.068;13.780;2023-04-19T03:39:47;20.70;;;13.57;;
6017;SDS011;3037;51.068;13.780;2023-04-19T03:42:12;16.43;;;12.60;;
6017;SDS011;3037;51.068;13.780;2023-04-19T03:44:38;19.93;;;13.20;;
6017;SDS011;3037;51.068;13.780;2023-04-19T03:47:03;14.77;;;10.90;;
6017;SDS011;3037;51.068;13.780;2023-04-19T03:49:29;14.80;;;10.90;;
6017;SDS011;3037;51.068;13.780;2023-04-19T03:51:55;16.50;;;11.50;;
6017;SDS011;3037;51.068;13.780;2023-04-19T03:54:20;12.43;;;10.03;;
6017;SDS011;3037;51.068;13.780;2023-04-19T03:56:46;20.87;;;12.43;;
6017;SDS011;3037;51.068;13.780;2023-04-19T03:59:11;19.37;;;12.97;;
6017;SDS011;3037;51.068;13.780;2023-04-19T04:01:37;15.27;;;11.50;;
6017;SDS011;3037;51.068;13.780;2023-04-19T04:04:09;18.57;;;11.60;;
6017;SDS011;3037;51.068;13.780;2023-04-19T04:06:35;22.50;;;12.80;;
6017;SDS011;3037;51.068;13.780;2023-04-19T04:09:01;23.33;;;12.17;;
6017;SDS011;3037;51.068;13.780;2023-04-19T04:11:26;14.43;;;10.73;;
6017;SDS011;3037;51.068;13.780;2023-04-19T04:13:52;17.87;;;11.27;;
6017;SDS011;3037;51.068;13.780;2023-04-19T04:16:18;13.63;;;10.30;;
6017;SDS011;3037;51.068;13.780;2023-04-19T04:18:44;17.13;;;11.97;;
6017;SDS011;3037;51.068;13.780;2023-04-19T04:21:09;18.53;;;11.37;;
6017;SDS011;3037;51.068;13.780;2023-04-19T04:23:34;11.03;;;9.63;;
6017;SDS011;3037;51.068;13.780;2023-04-19T04:26:01;22.67;;;9.70;;
6017;SDS011;3037;51.068;13.780;2023-04-19T04:28:28;19.83;;;9.30;;
6017;SDS011;3037;51.068;13.780;2023-04-19T04:30:55;20.07;;;10.43;;
6017;SDS011;3037;51.068;13.780;2023-04-19T04:33:23;15.27;;;9.87;;
6017;SDS011;3037;51.068;13.780;2023-04-19T04:35:50;11.90;;;8.93;;
6017;SDS011;3037;51.068;13.780;2023-04-19T04:38:16;18.30;;;8.47;;
6017;SDS011;3037;51.068;13.780;2023-04-19T04:40:42;12.37;;;8.60;;
6017;SDS011;3037;51.068;13.780;2023-04-19T04:43:07;11.73;;;7.63;;
6017;SDS011;3037;51.068;13.780;2023-04-19T04:45:33;12.20;;;7.53;;
6017;SDS011;3037;51.068;13.780;2023-04-19T04:47:58;9.73;;;7.90;;
6017;SDS011;3037;51.068;13.780;2023-04-19T04:50:23;14.20;;;7.70;;
6017;SDS011;3037;51.068;13.780;2023-04-19T04:52:49;11.17;;;6.53;;
6017;SDS011;3037;51.068;13.780;2023-04-19T04:55:15;7.40;;;6.67;;
6017;SDS011;3037;51.068;13.780;2023-04-19T04:57:41;8.77;;;6.90;;
6017;SDS011;3037;51.068;13.780;2023-04-19T05:00:07;9.63;;;6.40;;
6017;SDS011;3037;51.068;13.780;2023-04-19T05:02:33;8.10;;;6.13;;
6017;SDS011;3037;51.068;13.780;2023-04-19T05:04:59;10.60;;;5.87;;
6017;SDS011;3037;51.068;13.780;2023-04-19T05:07:24;11.30;;;5.90;;
6017;SDS011;3037;51.068;13.780;2023-04-19T05:09:49;6.50;;;5.53;;
6017;SDS011;3037;51.068;13.780;2023-04-19T05:12:15;12.67;;;6.57;;
6017;SDS011;3037;51.068;13.780;2023-04-19T05:14:40;9.13;;;6.20;;
6017;SDS011;3037;51.068;13.780;2023-04-19T05:17:06;9.20;;;6.30;;
6017;SDS011;3037;51.068;13.780;2023-04-19T05:19:31;11.53;;;6.10;;
6017;SDS011;3037;51.068;13.780;2023-04-19T05:21:57;12.83;;;5.90;;
6017;SDS011;3037;51.068;13.780;2023-04-19T05:24:22;8.87;;;6.17;;
6017;SDS011;3037;51.068;13.780;2023-04-19T05:26:48;6.70;;;5.57;;
6017;SDS011;3037;51.068;13.780;2023-04-19T05:29:13;10.43;;;6.17;;
6017;SDS011;3037;51.068;13.780;2023-04-19T05:31:39;8.33;;;5.03;;
6017;SDS011;3037;51.068;13.780;2023-04-19T05:34:04;5.33;;;4.83;;
6017;SDS011;3037;51.068;13.780;2023-04-19T05:36:30;17.03;;;5.50;;
6017;SDS011;3037;51.068;13.780;2023-04-19T05:38:56;6.70;;;4.87;;
6017;SDS011;3037;51.068;13.780;2023-04-19T05:41:21;9.40;;;5.10;;
6017;SDS011;3037;51.068;13.780;2023-04-19T05:43:47;7.77;;;4.60;;
6017;SDS011;3037;51.068;13.780;2023-04-19T05:46:13;4.37;;;3.97;;
6017;SDS011;3037;51.068;13.780;2023-04-19T05:48:38;8.97;;;4.67;;
6017;SDS011;3037;51.068;13.780;2023-04-19T05:51:04;6.00;;;4.03;;
6017;SDS011;3037;51.068;13.780;2023-04-19T05:53:29;4.70;;;4.30;;
6017;SDS011;3037;51.068;13.780;2023-04-19T05:55:55;4.57;;;4.13;;
6017;SDS011;3037;51.068;13.780;2023-04-19T05:58:20;8.33;;;3.10;;
6017;SDS011;3037;51.068;13.780;2023-04-19T06:00:47;3.37;;;3.00;;
6017;SDS011;3037;51.068;13.780;2023-04-19T06:03:13;7.97;;;3.33;;
6017;SDS011;3037;51.068;13.780;2023-04-19T06:05:38;7.57;;;3.40;;
6017;SDS011;3037;51.068;13.780;2023-04-19T06:08:04;8.47;;;4.50;;
6017;SDS011;3037;51.068;13.780;2023-04-19T06:10:31;3.63;;;3.13;;
6017;SDS011;3037;51.068;13.780;2023-04-19T06:12:56;4.10;;;3.07;;
6017;SDS011;3037;51.068;13.780;2023-04-19T06:15:22;4.57;;;2.87;;
6017;SDS011;3037;51.068;13.780;2023-04-19T06:17:49;7.90;;;2.90;;
6017;SDS011;3037;51.068;13.780;2023-04-19T06:20:15;3.17;;;2.87;;
6017;SDS011;3037;51.068;13.780;2023-04-19T06:22:41;5.30;;;2.47;;
6017;SDS011;3037;51.068;13.780;2023-04-19T06:25:09;3.50;;;2.80;;
6017;SDS011;3037;51.068;13.780;2023-04-19T06:27:34;12.73;;;2.20;;
6017;SDS011;3037;51.068;13.780;2023-04-19T06:30:00;2.63;;;2.20;;
6017;SDS011;3037;51.068;13.780;2023-04-19T06:32:25;5.60;;;2.73;;
6017;SDS011;3037;51.068;13.780;2023-04-19T06:34:51;4.97;;;2.83;;
6017;SDS011;3037;51.068;13.780;2023-04-19T06:37:16;2.73;;;2.30;;
6017;SDS011;3037;51.068;13.780;2023-04-19T06:39:42;2.70;;;2.60;;
6017;SDS011;3037;51.068;13.780;2023-04-19T06:42:07;6.40;;;2.13;;
6017;SDS011;3037;51.068;13.780;2023-04-19T06:44:33;2.77;;;2.57;;
6017;SDS011;3037;51.068;13.780;2023-04-19T06:46:58;4.50;;;2.70;;
6017;SDS011;3037;51.068;13.780;2023-04-19T06:49:24;2.40;;;2.30;;
6017;SDS011;3037;51.068;13.780;2023-04-19T06:51:49;2.70;;;2.50;;
6017;SDS011;3037;51.068;13.780;2023-04-19T06:54:15;2.70;;;2.50;;
6017;SDS011;3037;51.068;13.780;2023-04-19T06:56:41;2.50;;;2.40;;
6017;SDS011;3037;51.068;13.780;2023-04-19T06:59:18;2.60;;;2.17;;
6017;SDS011;3037;51.068;13.780;2023-04-19T07:01:45;2.63;;;2.43;;
6017;SDS011;3037;51.068;13.780;2023-04-19T07:04:11;2.87;;;2.40;;
6017;SDS011;3037;51.068;13.780;2023-04-19T07:06:37;4.30;;;2.60;;
6017;SDS011;3037;51.068;13.780;2023-04-19T07:09:04;6.17;;;2.40;;
6017;SDS011;3037;51.068;13.780;2023-04-19T07:11:31;2.00;;;1.90;;
6017;SDS011;3037;51.068;13.780;2023-04-19T07:13:57;2.53;;;2.33;;
6017;SDS011;3037;51.068;13.780;2023-04-19T07:16:23;2.23;;;1.93;;
6017;SDS011;3037;51.068;13.780;2023-04-19T07:18:49;2.77;;;2.53;;
6017;SDS011;3037;51.068;13.780;2023-04-19T07:21:14;9.00;;;2.73;;
6017;SDS011;3037;51.068;13.780;2023-04-19T07:23:40;9.43;;;3.00;;
6017;SDS011;3037;51.068;13.780;2023-04-19T07:26:06;6.53;;;2.80;;
6017;SDS011;3037;51.068;13.780;2023-04-19T07:28:31;6.87;;;2.70;;
6017;SDS011;3037;51.068;13.780;2023-04-19T07:30:57;3.23;;;2.03;;
6017;SDS011;3037;51.068;13.780;2023-04-19T07:33:23;2.93;;;2.40;;
6017;SDS011;3037;51.068;13.780;2023-04-19T07:35:49;15.33;;;2.47;;
6017;SDS011;3037;51.068;13.780;2023-04-19T07:38:15;4.13;;;2.70;;
6017;SDS011;3037;51.068;13.780;2023-04-19T07:40:41;2.83;;;2.50;;
6017;SDS011;3037;51.068;13.780;2023-04-19T07:43:06;3.77;;;2.90;;
6017;SDS011;3037;51.068;13.780;2023-04-19T07:45:32;4.43;;;2.47;;
6017;SDS011;3037;51.068;13.780;2023-04-19T07:47:58;4.23;;;2.30;;
6017;SDS011;3037;51.068;13.780;2023-04-19T07:50:23;3.10;;;2.90;;
6017;SDS011;3037;51.068;13.780;2023-04-19T07:52:50;8.83;;;3.07;;
6017;SDS011;3037;51.068;13.780;2023-04-19T07:55:16;4.80;;;2.30;;
6017;SDS011;3037;51.068;13.780;2023-04-19T07:57:41;5.53;;;2.57;;
6017;SDS011;3037;51.068;13.780;2023-04-19T08:00:12;5.23;;;2.70;;
6017;SDS011;3037;51.068;13.780;2023-04-19T08:02:39;2.80;;;2.60;;
6017;SDS011;3037;51.068;13.780;2023-04-19T08:05:07;12.50;;;2.63;;
6017;SDS011;3037;51.068;13.780;2023-04-19T08:07:33;2.73;;;2.20;;
6017;SDS011;3037;51.068;13.780;2023-04-19T08:09:59;4.57;;;2.57;;
6017;SDS011;3037;51.068;13.780;2023-04-19T08:12:24;2.93;;;2.73;;
6017;SDS011;3037;51.068;13.780;2023-04-19T08:14:50;3.63;;;2.67;;
6017;SDS011;3037;51.068;13.780;2023-04-19T08:17:15;2.43;;;2.20;;
6017;SDS011;3037;51.068;13.780;2023-04-19T08:19:44;2.83;;;2.60;;
6017;SDS011;3037;51.068;13.780;2023-04-19T08:22:10;3.87;;;2.73;;
6017;SDS011;3037;51.068;13.780;2023-04-19T08:24:35;2.77;;;2.57;;
6017;SDS011;3037;51.068;13.780;2023-04-19T08:27:01;7.07;;;2.57;;
6017;SDS011;3037;51.068;13.780;2023-04-19T08:29:26;2.77;;;2.20;;
6017;SDS011;3037;51.068;13.780;2023-04-19T08:31:52;3.13;;;2.60;;
6017;SDS011;3037;51.068;13.780;2023-04-19T08:34:17;3.00;;;2.60;;
6017;SDS011;3037;51.068;13.780;2023-04-19T08:36:43;2.57;;;2.40;;
6017;SDS011;3037;51.068;13.780;2023-04-19T08:39:10;2.43;;;2.33;;
6017;SDS011;3037;51.068;13.780;2023-04-19T08:41:36;3.80;;;3.00;;
6017;SDS011;3037;51.068;13.780;2023-04-19T08:44:02;7.93;;;2.83;;
6017;SDS011;3037;51.068;13.780;2023-04-19T08:46:30;4.27;;;2.70;;
6017;SDS011;3037;51.068;13.780;2023-04-19T08:48:56;2.83;;;2.63;;
6017;SDS011;3037;51.068;13.780;2023-04-19T08:51:23;4.17;;;2.50;;
6017;SDS011;3037;51.068;13.780;2023-04-19T08:53:50;3.87;;;2.60;;
6017;SDS011;3037;51.068;13.780;2023-04-19T08:56:17;2.93;;;2.73;;
6017;SDS011;3037;51.068;13.780;2023-04-19T08:58:43;7.43;;;2.83;;
6017;SDS011;3037;51.068;13.780;2023-04-19T09:01:09;7.17;;;3.13;;
6017;SDS011;3037;51.068;13.780;2023-04-19T09:03:37;4.77;;;3.13;;
6017;SDS011;3037;51.068;13.780;2023-04-19T09:06:09;6.00;;;2.53;;
6017;SDS011;3037;51.068;13.780;2023-04-19T09:08:36;4.30;;;2.83;;
6017;SDS011;3037;51.068;13.780;2023-04-19T09:11:02;4.07;;;3.23;;
6017;SDS011;3037;51.068;13.780;2023-04-19T09:13:27;9.00;;;3.30;;
6017;SDS011;3037;51.068;13.780;2023-04-19T09:15:54;7.80;;;2.80;;
6017;SDS011;3037;51.068;13.780;2023-04-19T09:18:24;2.83;;;2.67;;
6017;SDS011;3037;51.068;13.780;2023-04-19T09:20:50;3.57;;;2.70;;
6017;SDS011;3037;51.068;13.780;2023-04-19T09:23:22;3.97;;;3.13;;
6017;SDS011;3037;51.068;13.780;2023-04-19T09:25:56;4.47;;;3.50;;
6017;SDS011;3037;51.068;13.780;2023-04-19T09:28:30;4.97;;;3.57;;
6017;SDS011;3037;51.068;13.780;2023-04-19T09:30:56;12.50;;;4.10;;
6017;SDS011;3037;51.068;13.780;2023-04-19T09:33:32;4.83;;;3.40;;
6017;SDS011;3037;51.068;13.780;2023-04-19T09:35:59;6.60;;;4.00;;
6017;SDS011;3037;51.068;13.780;2023-04-19T09:38:25;5.17;;;2.80;;
6017;SDS011;3037;51.068;13.780;2023-04-19T09:40:51;6.83;;;4.20;;
6017;SDS011;3037;51.068;13.780;2023-04-19T09:43:23;14.77;;;4.37;;
6017;SDS011;3037;51.068;13.780;2023-04-19T09:45:49;3.60;;;3.27;;
6017;SDS011;3037;51.068;13.780;2023-04-19T09:48:15;4.00;;;3.37;;
6017;SDS011;3037;51.068;13.780;2023-04-19T09:53:23;3.23;;;3.00;;
6017;SDS011;3037;51.068;13.780;2023-04-19T09:55:50;5.50;;;3.00;;
6017;SDS011;3037;51.068;13.780;2023-04-19T09:58:16;7.43;;;3.30;;
6017;SDS011;3037;51.068;13.780;2023-04-19T10:00:44;5.87;;;3.10;;
6017;SDS011;3037;51.068;13.780;2023-04-19T10:03:11;3.03;;;2.83;;
6017;SDS011;3037;51.068;13.780;2023-04-19T10:05:41;3.47;;;2.80;;
6017;SDS011;3037;51.068;13.780;2023-04-19T10:08:08;5.53;;;2.47;;
6017;SDS011;3037;51.068;13.780;2023-04-19T10:10:35;5.57;;;3.03;;
6017;SDS011;3037;51.068;13.780;2023-04-19T10:13:03;4.00;;;3.03;;
6017;SDS011;3037;51.068;13.780;2023-04-19T10:15:33;11.37;;;3.50;;
6017;SDS011;3037;51.068;13.780;2023-04-19T10:18:03;3.17;;;2.87;;
6017;SDS011;3037;51.068;13.780;2023-04-19T10:20:31;5.47;;;3.60;;
6017;SDS011;3037;51.068;13.780;2023-04-19T10:23:01;5.27;;;3.43;;
6017;SDS011;3037;51.068;13.780;2023-04-19T10:25:28;4.80;;;3.70;;
6017;SDS011;3037;51.068;13.780;2023-04-19T10:27:54;3.80;;;3.30;;
6017;SDS011;3037;51.068;13.780;2023-04-19T10:30:21;3.37;;;2.97;;
6017;SDS011;3037;51.068;13.780;2023-04-19T10:35:24;7.20;;;3.03;;
6017;SDS011;3037;51.068;13.780;2023-04-19T10:43:20;3.33;;;3.03;;
6017;SDS011;3037;51.068;13.780;2023-04-19T10:45:53;4.97;;;3.27;;
6017;SDS011;3037;51.068;13.780;2023-04-19T10:48:30;7.40;;;3.23;;
6017;SDS011;3037;51.068;13.780;2023-04-19T10:53:48;8.53;;;3.40;;
6017;SDS011;3037;51.068;13.780;2023-04-19T10:56:15;6.50;;;2.90;;
6017;SDS011;3037;51.068;13.780;2023-04-19T11:01:39;6.03;;;2.60;;
6017;SDS011;3037;51.068;13.780;2023-04-19T11:04:09;3.77;;;2.50;;
6017;SDS011;3037;51.068;13.780;2023-04-19T11:06:55;6.20;;;3.30;;
6017;SDS011;3037;51.068;13.780;2023-04-19T11:09:34;10.73;;;4.00;;
6017;SDS011;3037;51.068;13.780;2023-04-19T11:12:06;6.73;;;3.30;;
6017;SDS011;3037;51.068;13.780;2023-04-19T11:14:40;6.40;;;2.93;;
6017;SDS011;3037;51.068;13.780;2023-04-19T11:17:20;5.03;;;2.60;;
6017;SDS011;3037;51.068;13.780;2023-04-19T11:20:07;9.63;;;3.50;;
6017;SDS011;3037;51.068;13.780;2023-04-19T11:22:35;3.63;;;2.87;;
6017;SDS011;3037;51.068;13.780;2023-04-19T11:27:37;10.83;;;2.30;;
6017;SDS011;3037;51.068;13.780;2023-04-19T11:30:05;6.90;;;3.20;;
6017;SDS011;3037;51.068;13.780;2023-04-19T11:32:35;3.10;;;2.80;;
6017;SDS011;3037;51.068;13.780;2023-04-19T11:35:05;3.27;;;2.97;;
6017;SDS011;3037;51.068;13.780;2023-04-19T11:37:32;7.47;;;3.30;;
6017;SDS011;3037;51.068;13.780;2023-04-19T11:39:59;7.07;;;3.73;;
6017;SDS011;3037;51.068;13.780;2023-04-19T11:42:24;3.10;;;2.90;;
6017;SDS011;3037;51.068;13.780;2023-04-19T11:44:50;12.73;;;3.33;;
6017;SDS011;3037;51.068;13.780;2023-04-19T11:47:16;7.90;;;3.20;;
6017;SDS011;3037;51.068;13.780;2023-04-19T11:49:44;3.57;;;3.13;;
6017;SDS011;3037;51.068;13.780;2023-04-19T11:52:09;6.73;;;2.90;;
6017;SDS011;3037;51.068;13.780;2023-04-19T11:54:35;3.50;;;3.20;;
6017;SDS011;3037;51.068;13.780;2023-04-19T11:57:04;3.53;;;3.30;;
6017;SDS011;3037;51.068;13.780;2023-04-19T11:59:32;8.63;;;3.27;;
6017;SDS011;3037;51.068;13.780;2023-04-19T12:02:09;5.57;;;2.77;;
6017;SDS011;3037;51.068;13.780;2023-04-19T12:04:36;3.77;;;3.47;;
6017;SDS011;3037;51.068;13.780;2023-04-19T12:07:02;3.37;;;3.17;;
6017;SDS011;3037;51.068;13.780;2023-04-19T12:09:31;6.70;;;2.97;;
6017;SDS011;3037;51.068;13.780;2023-04-19T12:11:58;6.93;;;2.87;;
6017;SDS011;3037;51.068;13.780;2023-04-19T12:14:23;4.93;;;3.13;;
6017;SDS011;3037;51.068;13.780;2023-04-19T12:17:03;3.57;;;3.33;;
6017;SDS011;3037;51.068;13.780;2023-04-19T12:19:33;5.17;;;3.70;;
6017;SDS011;3037;51.068;13.780;2023-04-19T12:22:07;9.63;;;3.80;;
6017;SDS011;3037;51.068;13.780;2023-04-19T12:24:40;6.83;;;3.77;;
6017;SDS011;3037;51.068;13.780;2023-04-19T12:27:08;3.73;;;3.30;;
6017;SDS011;3037;51.068;13.780;2023-04-19T12:29:34;4.30;;;3.00;;
6017;SDS011;3037;51.068;13.780;2023-04-19T12:32:00;4.90;;;3.93;;
6017;SDS011;3037;51.068;13.780;2023-04-19T12:34:26;6.47;;;3.53;;
6017;SDS011;3037;51.068;13.780;2023-04-19T12:36:51;4.70;;;2.97;;
6017;SDS011;3037;51.068;13.780;2023-04-19T12:39:17;2.67;;;2.47;;
6017;SDS011;3037;51.068;13.780;2023-04-19T12:41:43;5.30;;;3.57;;
6017;SDS011;3037;51.068;13.780;2023-04-19T12:44:08;15.43;;;3.57;;
6017;SDS011;3037;51.068;13.780;2023-04-19T12:46:34;7.97;;;3.40;;
6017;SDS011;3037;51.068;13.780;2023-04-19T12:49:00;3.47;;;3.23;;
6017;SDS011;3037;51.068;13.780;2023-04-19T12:51:25;3.40;;;3.10;;
6017;SDS011;3037;51.068;13.780;2023-04-19T12:53:51;3.27;;;3.13;;
6017;SDS011;3037;51.068;13.780;2023-04-19T12:56:18;4.27;;;2.87;;
6017;SDS011;3037;51.068;13.780;2023-04-19T12:58:44;4.83;;;2.67;;
6017;SDS011;3037;51.068;13.780;2023-04-19T13:01:09;9.47;;;4.10;;
6017;SDS011;3037;51.068;13.780;2023-04-19T13:03:35;7.37;;;3.57;;
6017;SDS011;3037;51.068;13.780;2023-04-19T13:06:01;3.70;;;3.40;;
6017;SDS011;3037;51.068;13.780;2023-04-19T13:08:27;3.53;;;3.10;;
6017;SDS011;3037;51.068;13.780;2023-04-19T13:10:54;8.90;;;3.73;;
6017;SDS011;3037;51.068;13.780;2023-04-19T13:13:19;7.00;;;3.20;;
6017;SDS011;3037;51.068;13.780;2023-04-19T13:15:45;4.50;;;3.70;;
6017;SDS011;3037;51.068;13.780;2023-04-19T13:18:11;4.97;;;3.40;;
6017;SDS011;3037;51.068;13.780;2023-04-19T13:20:36;5.93;;;2.83;;
6017;SDS011;3037;51.068;13.780;2023-04-19T13:23:02;3.40;;;3.10;;
6017;SDS011;3037;51.068;13.780;2023-04-19T13:25:27;6.33;;;3.43;;
6017;SDS011;3037;51.068;13.780;2023-04-19T13:27:53;5.70;;;3.47;;
6017;SDS011;3037;51.068;13.780;2023-04-19T13:30:18;5.60;;;3.77;;
6017;SDS011;3037;51.068;13.780;2023-04-19T13:32:44;7.43;;;3.60;;
6017;SDS011;3037;51.068;13.780;2023-04-19T13:35:09;6.93;;;3.23;;
6017;SDS011;3037;51.068;13.780;2023-04-19T13:37:35;5.50;;;3.20;;
6017;SDS011;3037;51.068;13.780;2023-04-19T13:40:01;6.73;;;3.97;;
6017;SDS011;3037;51.068;13.780;2023-04-19T13:42:28;5.40;;;3.30;;
6017;SDS011;3037;51.068;13.780;2023-04-19T13:44:53;5.10;;;3.57;;
6017;SDS011;3037;51.068;13.780;2023-04-19T13:47:19;4.40;;;4.03;;
6017;SDS011;3037;51.068;13.780;2023-04-19T13:49:44;10.63;;;4.80;;
6017;SDS011;3037;51.068;13.780;2023-04-19T13:52:15;4.63;;;3.13;;
6017;SDS011;3037;51.068;13.780;2023-04-19T13:54:44;3.77;;;3.40;;
6017;SDS011;3037;51.068;13.780;2023-04-19T13:57:10;4.87;;;3.50;;
6017;SDS011;3037;51.068;13.780;2023-04-19T13:59:36;5.40;;;3.60;;
6017;SDS011;3037;51.068;13.780;2023-04-19T14:02:02;3.40;;;3.13;;
6017;SDS011;3037;51.068;13.780;2023-04-19T14:04:28;6.33;;;3.50;;
6017;SDS011;3037;51.068;13.780;2023-04-19T14:06:53;4.77;;;3.77;;
6017;SDS011;3037;51.068;13.780;2023-04-19T14:09:19;5.00;;;3.27;;
6017;SDS011;3037;51.068;13.780;2023-04-19T14:11:45;4.23;;;3.73;;
6017;SDS011;3037;51.068;13.780;2023-04-19T14:14:11;4.27;;;3.87;;
6017;SDS011;3037;51.068;13.780;2023-04-19T14:16:36;14.43;;;3.80;;
6017;SDS011;3037;51.068;13.780;2023-04-19T14:19:02;9.70;;;3.30;;
6017;SDS011;3037;51.068;13.780;2023-04-19T14:21:28;7.03;;;3.70;;
6017;SDS011;3037;51.068;13.780;2023-04-19T14:23:55;5.23;;;3.50;;
6017;SDS011;3037;51.068;13.780;2023-04-19T14:26:20;6.73;;;3.67;;
6017;SDS011;3037;51.068;13.780;2023-04-19T14:28:46;6.00;;;4.03;;
6017;SDS011;3037;51.068;13.780;2023-04-19T14:31:12;7.90;;;3.80;;
6017;SDS011;3037;51.068;13.780;2023-04-19T14:33:37;5.80;;;3.70;;
6017;SDS011;3037;51.068;13.780;2023-04-19T14:36:03;7.43;;;4.20;;
6017;SDS011;3037;51.068;13.780;2023-04-19T14:38:29;3.73;;;3.40;;
6017;SDS011;3037;51.068;13.780;2023-04-19T14:40:54;6.00;;;4.20;;
6017;SDS011;3037;51.068;13.780;2023-04-19T14:43:20;4.33;;;3.50;;
6017;SDS011;3037;51.068;13.780;2023-04-19T14:45:47;7.37;;;4.37;;
6017;SDS011;3037;51.068;13.780;2023-04-19T14:48:13;8.90;;;3.73;;
6017;SDS011;3037;51.068;13.780;2023-04-19T14:50:39;4.73;;;4.03;;
6017;SDS011;3037;51.068;13.780;2023-04-19T14:53:04;6.60;;;3.33;;
6017;SDS011;3037;51.068;13.780;2023-04-19T14:55:30;3.93;;;3.30;;
6017;SDS011;3037;51.068;13.780;2023-04-19T14:57:55;3.93;;;3.67;;
6017;SDS011;3037;51.068;13.780;2023-04-19T15:00:21;3.87;;;3.50;;
6017;SDS011;3037;51.068;13.780;2023-04-19T15:02:46;5.27;;;3.90;;
6017;SDS011;3037;51.068;13.780;2023-04-19T15:05:11;4.57;;;3.17;;
6017;SDS011;3037;51.068;13.780;2023-04-19T15:07:37;5.00;;;3.60;;
6017;SDS011;3037;51.068;13.780;2023-04-19T15:10:03;4.10;;;3.70;;